sensor_id;sensor_type;location;lat;lon;timestamp;pressure;altitude;pressure_sealevel;temperature;humidity
20909;BME280;10614;53.198;6.570;2023-12-28T00:01:53;100491.00;;;7.92;100.00
20909;BME280;10614;53.198;6.570;2023-12-28T00:03:55;100528.00;;;8.08;100.00
20909;BME280;10614;53.198;6.570;2023-12-28T00:05:58;100546.09;;;8.15;100.00
20909;BME280;10614;53.198;6.570;2023-12-28T00:08:01;100483.06;;;7.93;100.00
20909;BME280;10614;53.198;6.570;2023-12-28T00:10:03;100539.88;;;8.18;100.00
20909;BME280;10614;53.198;6.570;2023-12-28T00:12:05;100528.34;;;7.98;100.00
20909;BME280;10614;53.198;6.570;2023-12-28T00:14:07;100535.59;;;8.15;100.00
20909;BME280;10614;53.198;6.570;2023-12-28T00:16:07;100549.44;;;8.19;100.00
20909;BME280;10614;53.198;6.570;2023-12-28T00:18:09;100535.97;;;8.04;100.00
20909;BME280;10614;53.198;6.570;2023-12-28T00:20:12;100538.13;;;8.18;100.00
20909;BME280;10614;53.198;6.570;2023-12-28T00:22:14;100550.38;;;8.18;100.00
20909;BME280;10614;53.198;6.570;2023-12-28T00:24:20;100500.88;;;7.83;100.00
20909;BME280;10614;53.198;6.570;2023-12-28T00:26:22;100529.75;;;8.07;100.00
20909;BME280;10614;53.198;6.570;2023-12-28T00:28:24;100553.16;;;8.13;100.00
20909;BME280;10614;53.198;6.570;2023-12-28T00:30:26;100540.00;;;8.15;100.00
20909;BME280;10614;53.198;6.570;2023-12-28T00:32:27;100508.94;;;8.02;100.00
20909;BME280;10614;53.198;6.570;2023-12-28T00:34:29;100520.31;;;8.03;100.00
20909;BME280;10614;53.198;6.570;2023-12-28T00:36:31;100532.91;;;8.17;100.00
20909;BME280;10614;53.198;6.570;2023-12-28T00:38:33;100508.94;;;8.02;100.00
20909;BME280;10614;53.198;6.570;2023-12-28T00:40:36;100540.78;;;8.17;100.00
20909;BME280;10614;53.198;6.570;2023-12-28T00:42:38;100559.25;;;8.14;100.00
20909;BME280;10614;53.198;6.570;2023-12-28T00:44:41;100557.97;;;8.25;100.00
20909;BME280;10614;53.198;6.570;2023-12-28T00:46:43;100503.63;;;8.06;100.00
20909;BME280;10614;53.198;6.570;2023-12-28T00:48:45;100501.09;;;8.02;100.00
20909;BME280;10614;53.198;6.570;2023-12-28T00:50:47;100544.91;;;8.24;100.00
20909;BME280;10614;53.198;6.570;2023-12-28T00:52:49;100514.03;;;8.07;100.00
20909;BME280;10614;53.198;6.570;2023-12-28T00:54:50;100513.50;;;7.97;100.00
20909;BME280;10614;53.198;6.570;2023-12-28T00:56:53;100559.56;;;8.30;100.00
20909;BME280;10614;53.198;6.570;2023-12-28T00:58:55;100559.69;;;8.27;100.00
20909;BME280;10614;53.198;6.570;2023-12-28T01:00:57;100544.28;;;8.17;100.00
20909;BME280;10614;53.198;6.570;2023-12-28T01:02:59;100550.91;;;8.28;100.00
20909;BME280;10614;53.198;6.570;2023-12-28T01:05:01;100553.47;;;8.29;100.00
20909;BME280;10614;53.198;6.570;2023-12-28T01:07:04;100551.81;;;8.27;100.00
20909;BME280;10614;53.198;6.570;2023-12-28T01:09:06;100536.63;;;8.11;100.00
20909;BME280;10614;53.198;6.570;2023-12-28T01:11:10;100555.50;;;8.21;100.00
20909;BME280;10614;53.198;6.570;2023-12-28T01:13:13;100552.06;;;8.19;100.00
20909;BME280;10614;53.198;6.570;2023-12-28T01:15:15;100535.06;;;8.06;100.00
20909;BME280;10614;53.198;6.570;2023-12-28T01:17:18;100542.06;;;8.05;100.00
20909;BME280;10614;53.198;6.570;2023-12-28T01:19:20;100558.34;;;8.15;100.00
20909;BME280;10614;53.198;6.570;2023-12-28T01:21:23;100538.75;;;8.00;100.00
20909;BME280;10614;53.198;6.570;2023-12-28T01:23:26;100538.75;;;8.00;100.00
20909;BME280;10614;53.198;6.570;2023-12-28T01:25:27;100578.41;;;8.16;100.00
20909;BME280;10614;53.198;6.570;2023-12-28T01:27:29;100588.94;;;8.14;100.00
20909;BME280;10614;53.198;6.570;2023-12-28T01:29:32;100550.38;;;7.91;100.00
20909;BME280;10614;53.198;6.570;2023-12-28T01:31:34;100546.06;;;7.90;100.00
20909;BME280;10614;53.198;6.570;2023-12-28T01:33:36;100561.75;;;7.92;100.00
20909;BME280;10614;53.198;6.570;2023-12-28T01:35:38;100558.38;;;7.88;100.00
20909;BME280;10614;53.198;6.570;2023-12-28T01:37:40;100566.22;;;7.88;100.00
20909;BME280;10614;53.198;6.570;2023-12-28T01:39:42;100552.47;;;7.81;100.00
20909;BME280;10614;53.198;6.570;2023-12-28T01:41:44;100551.44;;;7.87;100.00
20909;BME280;10614;53.198;6.570;2023-12-28T01:43:46;100553.22;;;7.85;100.00
20909;BME280;10614;53.198;6.570;2023-12-28T01:45:48;100591.00;;;8.04;100.00
20909;BME280;10614;53.198;6.570;2023-12-28T01:47:52;100549.09;;;7.78;100.00
20909;BME280;10614;53.198;6.570;2023-12-28T01:49:54;100581.59;;;7.99;100.00
20909;BME280;10614;53.198;6.570;2023-12-28T01:51:57;100586.53;;;8.08;100.00
20909;BME280;10614;53.198;6.570;2023-12-28T01:53:59;100563.34;;;7.96;100.00
20909;BME280;10614;53.198;6.570;2023-12-28T01:56:01;100588.09;;;8.14;100.00
20909;BME280;10614;53.198;6.570;2023-12-28T01:58:03;100552.97;;;7.93;100.00
20909;BME280;10614;53.198;6.570;2023-12-28T02:00:06;100570.28;;;7.98;100.00
20909;BME280;10614;53.198;6.570;2023-12-28T02:02:09;100549.63;;;7.89;100.00
20909;BME280;10614;53.198;6.570;2023-12-28T02:04:12;100558.25;;;7.91;100.00
20909;BME280;10614;53.198;6.570;2023-12-28T02:06:15;100560.84;;;7.93;100.00
20909;BME280;10614;53.198;6.570;2023-12-28T02:08:16;100529.53;;;7.88;100.00
20909;BME280;10614;53.198;6.570;2023-12-28T02:10:18;100571.16;;;7.97;100.00
20909;BME280;10614;53.198;6.570;2023-12-28T02:12:20;100590.00;;;8.09;100.00
20909;BME280;10614;53.198;6.570;2023-12-28T02:14:22;100590.88;;;8.09;100.00
20909;BME280;10614;53.198;6.570;2023-12-28T02:16:29;100585.78;;;8.04;100.00
20909;BME280;10614;53.198;6.570;2023-12-28T02:18:38;100567.72;;;7.95;100.00
20909;BME280;10614;53.198;6.570;2023-12-28T02:20:41;100571.94;;;8.01;100.00
20909;BME280;10614;53.198;6.570;2023-12-28T02:22:45;100557.63;;;7.85;100.00
20909;BME280;10614;53.198;6.570;2023-12-28T02:25:04;100544.72;;;7.78;100.00
20909;BME280;10614;53.198;6.570;2023-12-28T02:27:06;100540.56;;;7.73;100.00
20909;BME280;10614;53.198;6.570;2023-12-28T02:29:14;100553.34;;;7.82;100.00
20909;BME280;10614;53.198;6.570;2023-12-28T02:31:21;100545.34;;;7.87;100.00
20909;BME280;10614;53.198;6.570;2023-12-28T02:33:33;100555.75;;;7.88;100.00
20909;BME280;10614;53.198;6.570;2023-12-28T02:35:39;100578.03;;;8.01;100.00
20909;BME280;10614;53.198;6.570;2023-12-28T02:37:43;100552.38;;;7.85;100.00
20909;BME280;10614;53.198;6.570;2023-12-28T02:39:49;100565.81;;;8.00;100.00
20909;BME280;10614;53.198;6.570;2023-12-28T02:41:54;100553.94;;;7.90;100.00
20909;BME280;10614;53.198;6.570;2023-12-28T02:43:56;100579.78;;;8.01;100.00
20909;BME280;10614;53.198;6.570;2023-12-28T02:45:58;100570.91;;;8.05;100.00
20909;BME280;10614;53.198;6.570;2023-12-28T02:48:00;100551.00;;;7.99;100.00
20909;BME280;10614;53.198;6.570;2023-12-28T02:50:01;100559.44;;;8.08;100.00
20909;BME280;10614;53.198;6.570;2023-12-28T02:52:04;100539.50;;;8.03;100.00
20909;BME280;10614;53.198;6.570;2023-12-28T02:54:06;100566.16;;;8.16;100.00
20909;BME280;10614;53.198;6.570;2023-12-28T02:56:07;100561.41;;;8.28;100.00
20909;BME280;10614;53.198;6.570;2023-12-28T02:58:10;100551.81;;;8.27;100.00
20909;BME280;10614;53.198;6.570;2023-12-28T03:00:13;100560.31;;;8.33;100.00
20909;BME280;10614;53.198;6.570;2023-12-28T03:02:15;100532.59;;;8.26;100.00
20909;BME280;10614;53.198;6.570;2023-12-28T03:04:17;100520.28;;;8.28;100.00
20909;BME280;10614;53.198;6.570;2023-12-28T03:06:18;100537.38;;;8.40;100.00
20909;BME280;10614;53.198;6.570;2023-12-28T03:08:20;100535.28;;;8.50;100.00
20909;BME280;10614;53.198;6.570;2023-12-28T03:10:22;100526.00;;;8.39;100.00
20909;BME280;10614;53.198;6.570;2023-12-28T03:12:24;100529.25;;;8.48;100.00
20909;BME280;10614;53.198;6.570;2023-12-28T03:14:26;100537.91;;;8.50;100.00
20909;BME280;10614;53.198;6.570;2023-12-28T03:16:27;100535.75;;;8.61;100.00
20909;BME280;10614;53.198;6.570;2023-12-28T03:18:29;100508.28;;;8.48;100.00
20909;BME280;10614;53.198;6.570;2023-12-28T03:20:31;100515.00;;;8.55;100.00
20909;BME280;10614;53.198;6.570;2023-12-28T03:22:32;100548.31;;;8.76;100.00
20909;BME280;10614;53.198;6.570;2023-12-28T03:24:36;100520.81;;;8.63;100.00
20909;BME280;10614;53.198;6.570;2023-12-28T03:26:38;100545.69;;;8.76;100.00
20909;BME280;10614;53.198;6.570;2023-12-28T03:28:40;100532.63;;;8.75;100.00
20909;BME280;10614;53.198;6.570;2023-12-28T03:30:44;100541.13;;;8.81;100.00
20909;BME280;10614;53.198;6.570;2023-12-28T03:32:47;100527.69;;;8.89;100.00
20909;BME280;10614;53.198;6.570;2023-12-28T03:34:52;100539.94;;;8.90;100.00
20909;BME280;10614;53.198;6.570;2023-12-28T03:36:55;100530.63;;;8.81;100.00
20909;BME280;10614;53.198;6.570;2023-12-28T03:38:58;100528.00;;;8.81;100.00
20909;BME280;10614;53.198;6.570;2023-12-28T03:40:59;100514.19;;;8.76;100.00
20909;BME280;10614;53.198;6.570;2023-12-28T03:43:01;100522.91;;;8.77;100.00
20909;BME280;10614;53.198;6.570;2023-12-28T03:45:04;100558.47;;;8.85;100.00
20909;BME280;10614;53.198;6.570;2023-12-28T03:47:07;100498.53;;;8.73;100.00
20909;BME280;10614;53.198;6.570;2023-12-28T03:49:09;100489.16;;;8.68;100.00
20909;BME280;10614;53.198;6.570;2023-12-28T03:51:13;100482.94;;;8.70;100.00
20909;BME280;10614;53.198;6.570;2023-12-28T03:53:15;100477.97;;;8.62;100.00
20909;BME280;10614;53.198;6.570;2023-12-28T03:55:17;100511.91;;;8.91;100.00
20909;BME280;10614;53.198;6.570;2023-12-28T03:57:19;100511.09;;;8.88;100.00
20909;BME280;10614;53.198;6.570;2023-12-28T03:59:21;100493.25;;;8.75;100.00
20909;BME280;10614;53.198;6.570;2023-12-28T04:01:23;100497.44;;;8.80;100.00
20909;BME280;10614;53.198;6.570;2023-12-28T04:03:26;100509.41;;;8.87;100.00
20909;BME280;10614;53.198;6.570;2023-12-28T04:05:28;100506.97;;;8.83;100.00
20909;BME280;10614;53.198;6.570;2023-12-28T04:07:30;100508.94;;;9.00;100.00
20909;BME280;10614;53.198;6.570;2023-12-28T04:09:32;100506.81;;;8.86;100.00
20909;BME280;10614;53.198;6.570;2023-12-28T04:11:33;100456.22;;;8.82;100.00
20909;BME280;10614;53.198;6.570;2023-12-28T04:13:35;100456.50;;;8.75;100.00
20909;BME280;10614;53.198;6.570;2023-12-28T04:15:37;100478.44;;;8.96;100.00
20909;BME280;10614;53.198;6.570;2023-12-28T04:17:39;100485.34;;;8.98;100.00
20909;BME280;10614;53.198;6.570;2023-12-28T04:19:42;100504.84;;;9.15;100.00
20909;BME280;10614;53.198;6.570;2023-12-28T04:21:44;100459.75;;;8.81;100.00
20909;BME280;10614;53.198;6.570;2023-12-28T04:23:46;100496.16;;;8.91;100.00
20909;BME280;10614;53.198;6.570;2023-12-28T04:25:47;100474.22;;;8.92;100.00
20909;BME280;10614;53.198;6.570;2023-12-28T04:27:51;100478.50;;;8.94;100.00
20909;BME280;10614;53.198;6.570;2023-12-28T04:29:54;100502.97;;;9.18;100.00
20909;BME280;10614;53.198;6.570;2023-12-28T04:31:55;100508.03;;;9.23;100.00
20909;BME280;10614;53.198;6.570;2023-12-28T04:33:56;100488.97;;;9.18;100.00
20909;BME280;10614;53.198;6.570;2023-12-28T04:36:02;100517.78;;;9.19;100.00
20909;BME280;10614;53.198;6.570;2023-12-28T04:38:08;100520.66;;;9.13;100.00
20909;BME280;10614;53.198;6.570;2023-12-28T04:40:10;100534.34;;;9.21;100.00
20909;BME280;10614;53.198;6.570;2023-12-28T04:42:14;100506.97;;;9.27;100.00
20909;BME280;10614;53.198;6.570;2023-12-28T04:44:16;100505.63;;;9.17;100.00
20909;BME280;10614;53.198;6.570;2023-12-28T04:46:18;100523.03;;;9.19;100.00
20909;BME280;10614;53.198;6.570;2023-12-28T04:48:26;100510.22;;;9.12;100.00
20909;BME280;10614;53.198;6.570;2023-12-28T04:50:27;100512.16;;;9.28;100.00
20909;BME280;10614;53.198;6.570;2023-12-28T04:52:31;100503.75;;;9.20;100.00
20909;BME280;10614;53.198;6.570;2023-12-28T04:54:34;100508.03;;;9.23;100.00
20909;BME280;10614;53.198;6.570;2023-12-28T04:56:35;100523.03;;;9.19;100.00
20909;BME280;10614;53.198;6.570;2023-12-28T04:58:38;100500.56;;;9.12;100.00
20909;BME280;10614;53.198;6.570;2023-12-28T05:00:43;100483.31;;;9.27;100.00
20909;BME280;10614;53.198;6.570;2023-12-28T05:02:45;100542.00;;;9.27;100.00
20909;BME280;10614;53.198;6.570;2023-12-28T05:04:45;100524.44;;;9.28;100.00
20909;BME280;10614;53.198;6.570;2023-12-28T05:06:47;100477.16;;;9.06;100.00
20909;BME280;10614;53.198;6.570;2023-12-28T05:08:53;100472.53;;;9.13;100.00
20909;BME280;10614;53.198;6.570;2023-12-28T05:10:54;100489.75;;;9.20;100.00
20909;BME280;10614;53.198;6.570;2023-12-28T05:12:56;100495.78;;;9.22;100.00
20909;BME280;10614;53.198;6.570;2023-12-28T05:14:57;100489.66;;;9.23;100.00
20909;BME280;10614;53.198;6.570;2023-12-28T05:16:59;100499.69;;;9.34;100.00
20909;BME280;10614;53.198;6.570;2023-12-28T05:19:00;100481.69;;;9.24;100.00
20909;BME280;10614;53.198;6.570;2023-12-28T05:21:02;100467.75;;;9.22;100.00
20909;BME280;10614;53.198;6.570;2023-12-28T05:23:04;100474.97;;;9.17;100.00
20909;BME280;10614;53.198;6.570;2023-12-28T05:25:07;100480.13;;;9.20;100.00
20909;BME280;10614;53.198;6.570;2023-12-28T05:27:09;100495.69;;;9.25;100.00
20909;BME280;10614;53.198;6.570;2023-12-28T05:29:11;100517.38;;;9.30;100.00
20909;BME280;10614;53.198;6.570;2023-12-28T05:31:13;100512.13;;;9.30;100.00
20909;BME280;10614;53.198;6.570;2023-12-28T05:33:15;100501.72;;;9.27;100.00
20909;BME280;10614;53.198;6.570;2023-12-28T05:35:17;100501.84;;;9.24;100.00
20909;BME280;10614;53.198;6.570;2023-12-28T05:37:18;100488.19;;;9.16;100.00
20909;BME280;10614;53.198;6.570;2023-12-28T05:39:20;100511.97;;;9.33;100.00
20909;BME280;10614;53.198;6.570;2023-12-28T05:41:23;100517.56;;;9.25;100.00
20909;BME280;10614;53.198;6.570;2023-12-28T05:43:25;100520.19;;;9.25;100.00
20909;BME280;10614;53.198;6.570;2023-12-28T05:45:27;100522.66;;;9.28;100.00
20909;BME280;10614;53.198;6.570;2023-12-28T05:47:29;100519.00;;;9.33;100.00
20909;BME280;10614;53.198;6.570;2023-12-28T05:49:30;100525.16;;;9.32;100.00
20909;BME280;10614;53.198;6.570;2023-12-28T05:51:37;100520.53;;;9.38;100.00
20909;BME280;10614;53.198;6.570;2023-12-28T05:53:38;100498.31;;;9.25;100.00
20909;BME280;10614;53.198;6.570;2023-12-28T05:55:40;100485.41;;;9.19;100.00
20909;BME280;10614;53.198;6.570;2023-12-28T05:57:42;100509.41;;;9.32;100.00
20909;BME280;10614;53.198;6.570;2023-12-28T05:59:45;100489.38;;;9.29;100.00
20909;BME280;10614;53.198;6.570;2023-12-28T06:01:49;100498.88;;;9.11;100.00
20909;BME280;10614;53.198;6.570;2023-12-28T06:03:52;100478.41;;;9.19;100.00
20909;BME280;10614;53.198;6.570;2023-12-28T06:05:55;100489.75;;;9.20;100.00
20909;BME280;10614;53.198;6.570;2023-12-28T06:07:57;100495.69;;;9.25;100.00
20909;BME280;10614;53.198;6.570;2023-12-28T06:10:01;100473.47;;;9.12;100.00
20909;BME280;10614;53.198;6.570;2023-12-28T06:12:07;100508.06;;;9.21;100.00
20909;BME280;10614;53.198;6.570;2023-12-28T06:14:12;100491.59;;;9.18;100.00
20909;BME280;10614;53.198;6.570;2023-12-28T06:16:15;100495.88;;;9.20;100.00
20909;BME280;10614;53.198;6.570;2023-12-28T06:18:17;100522.00;;;9.23;100.00
20909;BME280;10614;53.198;6.570;2023-12-28T06:20:19;100510.16;;;9.35;100.00
20909;BME280;10614;53.198;6.570;2023-12-28T06:22:36;100467.09;;;9.17;100.00
20909;BME280;10614;53.198;6.570;2023-12-28T06:24:39;100490.00;;;9.36;100.00
20909;BME280;10614;53.198;6.570;2023-12-28T06:26:45;100475.59;;;9.24;100.00
20909;BME280;10614;53.198;6.570;2023-12-28T06:28:47;100487.38;;;9.36;100.00
20909;BME280;10614;53.198;6.570;2023-12-28T06:31:06;100470.59;;;9.18;100.00
20909;BME280;10614;53.198;6.570;2023-12-28T06:33:10;100493.25;;;9.20;100.00
20909;BME280;10614;53.198;6.570;2023-12-28T06:35:12;100496.84;;;9.40;100.00
20909;BME280;10614;53.198;6.570;2023-12-28T06:37:14;100512.47;;;9.43;100.00
20909;BME280;10614;53.198;6.570;2023-12-28T06:39:16;100505.84;;;9.34;100.00
20909;BME280;10614;53.198;6.570;2023-12-28T06:41:17;100474.69;;;9.25;100.00
20909;BME280;10614;53.198;6.570;2023-12-28T06:43:19;100483.50;;;9.22;100.00
20909;BME280;10614;53.198;6.570;2023-12-28T06:45:20;100528.03;;;9.47;100.00
20909;BME280;10614;53.198;6.570;2023-12-28T06:47:28;100456.59;;;9.17;100.00
20909;BME280;10614;53.198;6.570;2023-12-28T06:49:35;100514.91;;;9.47;100.00
20909;BME280;10614;53.198;6.570;2023-12-28T06:51:37;100492.63;;;9.36;100.00
20909;BME280;10614;53.198;6.570;2023-12-28T06:53:39;100512.09;;;9.52;100.00
20909;BME280;10614;53.198;6.570;2023-12-28T06:55:41;100528.03;;;9.47;100.00
20909;BME280;10614;53.198;6.570;2023-12-28T06:57:43;100498.00;;;9.33;100.00
20909;BME280;10614;53.198;6.570;2023-12-28T06:59:44;100502.28;;;9.35;100.00
20909;BME280;10614;53.198;6.570;2023-12-28T07:01:46;100499.47;;;9.40;100.00
20909;BME280;10614;53.198;6.570;2023-12-28T07:03:50;100529.41;;;9.58;100.00
20909;BME280;10614;53.198;6.570;2023-12-28T07:05:52;100506.53;;;9.38;100.00
20909;BME280;10614;53.198;6.570;2023-12-28T07:07:54;100488.72;;;9.24;100.00
20909;BME280;10614;53.198;6.570;2023-12-28T07:09:56;100485.78;;;9.32;100.00
20909;BME280;10614;53.198;6.570;2023-12-28T07:11:58;100517.44;;;9.50;100.00
20909;BME280;10614;53.198;6.570;2023-12-28T07:14:00;100490.84;;;9.36;100.00
20909;BME280;10614;53.198;6.570;2023-12-28T07:16:02;100533.19;;;9.50;100.00
20909;BME280;10614;53.198;6.570;2023-12-28T07:18:06;100508.50;;;9.33;100.00
20909;BME280;10614;53.198;6.570;2023-12-28T07:20:10;100544.59;;;9.49;100.00
20909;BME280;10614;53.198;6.570;2023-12-28T07:22:13;100550.72;;;9.50;100.00
20909;BME280;10614;53.198;6.570;2023-12-28T07:24:15;100549.75;;;9.30;100.00
20909;BME280;10614;53.198;6.570;2023-12-28T07:26:16;100521.59;;;9.34;100.00
20909;BME280;10614;53.198;6.570;2023-12-28T07:28:18;100549.25;;;9.43;100.00
20909;BME280;10614;53.198;6.570;2023-12-28T07:30:20;100531.03;;;9.38;100.00
20909;BME280;10614;53.198;6.570;2023-12-28T07:32:22;100538.63;;;9.46;100.00
20909;BME280;10614;53.198;6.570;2023-12-28T07:34:26;100568.31;;;9.48;100.00
20909;BME280;10614;53.198;6.570;2023-12-28T07:36:29;100546.31;;;9.28;100.00
20909;BME280;10614;53.198;6.570;2023-12-28T07:38:31;100548.03;;;9.29;100.00
20909;BME280;10614;53.198;6.570;2023-12-28T07:40:33;100548.56;;;9.38;100.00
20909;BME280;10614;53.198;6.570;2023-12-28T07:42:34;100559.75;;;9.43;100.00
20909;BME280;10614;53.198;6.570;2023-12-28T07:44:37;100568.56;;;9.42;100.00
20909;BME280;10614;53.198;6.570;2023-12-28T07:46:38;100558.16;;;9.39;100.00
20909;BME280;10614;53.198;6.570;2023-12-28T07:48:40;100565.81;;;9.45;100.00
20909;BME280;10614;53.198;6.570;2023-12-28T07:50:42;100562.09;;;9.50;100.00
20909;BME280;10614;53.198;6.570;2023-12-28T07:52:46;100572.03;;;9.42;100.00
20909;BME280;10614;53.198;6.570;2023-12-28T07:54:48;100588.16;;;9.55;100.00
20909;BME280;10614;53.198;6.570;2023-12-28T07:56:50;100601.28;;;9.55;100.00
20909;BME280;10614;53.198;6.570;2023-12-28T07:58:52;100596.00;;;9.57;100.00
20909;BME280;10614;53.198;6.570;2023-12-28T08:00:54;100607.16;;;9.62;100.00
20909;BME280;10614;53.198;6.570;2023-12-28T08:02:56;100602.00;;;9.60;100.00
20909;BME280;10614;53.198;6.570;2023-12-28T08:04:58;100585.34;;;9.60;100.00
20909;BME280;10614;53.198;6.570;2023-12-28T08:07:00;100606.31;;;9.61;100.00
20909;BME280;10614;53.198;6.570;2023-12-28T08:09:05;100614.44;;;9.55;100.00
20909;BME280;10614;53.198;6.570;2023-12-28T08:11:07;100601.72;;;9.66;100.00
20909;BME280;10614;53.198;6.570;2023-12-28T08:13:09;100604.25;;;9.69;100.00
20909;BME280;10614;53.198;6.570;2023-12-28T08:15:11;100585.91;;;9.68;100.00
20909;BME280;10614;53.198;6.570;2023-12-28T08:17:14;100549.72;;;9.52;100.00
20909;BME280;10614;53.198;6.570;2023-12-28T08:19:16;100557.75;;;9.49;100.00
20909;BME280;10614;53.198;6.570;2023-12-28T08:21:18;100557.75;;;9.49;100.00
20909;BME280;10614;53.198;6.570;2023-12-28T08:23:20;100609.16;;;9.79;100.00
20909;BME280;10614;53.198;6.570;2023-12-28T08:25:23;100584.09;;;9.70;100.00
20909;BME280;10614;53.198;6.570;2023-12-28T08:27:25;100653.75;;;9.80;100.00
20909;BME280;10614;53.198;6.570;2023-12-28T08:29:27;100603.75;;;9.82;100.00
20909;BME280;10614;53.198;6.570;2023-12-28T08:31:28;100565.22;;;9.60;100.00
20909;BME280;10614;53.198;6.570;2023-12-28T08:33:32;100591.97;;;9.70;100.00
20909;BME280;10614;53.198;6.570;2023-12-28T08:35:34;100591.78;;;9.75;100.00
20909;BME280;10614;53.198;6.570;2023-12-28T08:37:38;100571.38;;;9.59;100.00
20909;BME280;10614;53.198;6.570;2023-12-28T08:39:48;100541.94;;;9.51;100.00
20909;BME280;10614;53.198;6.570;2023-12-28T08:42:01;100630.03;;;9.82;100.00
20909;BME280;10614;53.198;6.570;2023-12-28T08:44:04;100571.00;;;9.68;100.00
20909;BME280;10614;53.198;6.570;2023-12-28T08:46:21;100600.50;;;9.75;100.00
20909;BME280;10614;53.198;6.570;2023-12-28T08:48:37;100599.09;;;9.66;100.00
20909;BME280;10614;53.198;6.570;2023-12-28T08:50:40;100561.59;;;9.63;100.00
20909;BME280;10614;53.198;6.570;2023-12-28T08:52:42;100555.06;;;9.51;100.00
20909;BME280;10614;53.198;6.570;2023-12-28T08:54:44;100607.19;;;9.84;100.00
20909;BME280;10614;53.198;6.570;2023-12-28T08:56:45;100600.28;;;9.81;100.00
20909;BME280;10614;53.198;6.570;2023-12-28T08:58:51;100622.03;;;9.85;100.00
20909;BME280;10614;53.198;6.570;2023-12-28T09:00:54;100622.22;;;9.80;100.00
20909;BME280;10614;53.198;6.570;2023-12-28T09:03:00;100574.34;;;9.50;100.00
20909;BME280;10614;53.198;6.570;2023-12-28T09:05:02;100623.66;;;9.87;100.00
20909;BME280;10614;53.198;6.570;2023-12-28T09:07:04;100619.94;;;9.93;100.00
20909;BME280;10614;53.198;6.570;2023-12-28T09:09:09;100598.72;;;9.76;100.00
20909;BME280;10614;53.198;6.570;2023-12-28T09:11:12;100643.63;;;9.93;100.00
20909;BME280;10614;53.198;6.570;2023-12-28T09:13:15;100611.78;;;9.79;100.00
20909;BME280;10614;53.198;6.570;2023-12-28T09:15:19;100637.44;;;9.94;100.00
20909;BME280;10614;53.198;6.570;2023-12-28T09:17:23;100641.69;;;9.97;100.00
20909;BME280;10614;53.198;6.570;2023-12-28T09:19:25;100630.34;;;9.96;100.00
20909;BME280;10614;53.198;6.570;2023-12-28T09:21:28;100639.69;;;10.03;100.00
20909;BME280;10614;53.198;6.570;2023-12-28T09:23:31;100644.91;;;10.05;100.00
20909;BME280;10614;53.198;6.570;2023-12-28T09:25:34;100642.31;;;10.03;100.00
20909;BME280;10614;53.198;6.570;2023-12-28T09:27:36;100650.19;;;10.03;100.00
20909;BME280;10614;53.198;6.570;2023-12-28T09:29:45;100627.72;;;9.96;100.00
20909;BME280;10614;53.198;6.570;2023-12-28T09:31:48;100641.13;;;10.10;100.00
20909;BME280;10614;53.198;6.570;2023-12-28T09:33:50;100638.28;;;9.94;100.00
20909;BME280;10614;53.198;6.570;2023-12-28T09:35:53;100661.38;;;10.08;100.00
20909;BME280;10614;53.198;6.570;2023-12-28T09:37:54;100649.03;;;10.10;100.00
20909;BME280;10614;53.198;6.570;2023-12-28T09:39:56;100672.56;;;10.13;100.00
20909;BME280;10614;53.198;6.570;2023-12-28T09:42:02;100670.13;;;10.09;100.00
20909;BME280;10614;53.198;6.570;2023-12-28T09:44:09;100675.16;;;10.15;100.00
20909;BME280;10614;53.198;6.570;2023-12-28T09:46:15;100668.19;;;10.14;100.00
20909;BME280;10614;53.198;6.570;2023-12-28T09:48:21;100681.44;;;10.11;100.00
20909;BME280;10614;53.198;6.570;2023-12-28T09:50:30;100686.69;;;10.11;100.00
20909;BME280;10614;53.198;6.570;2023-12-28T09:52:32;100677.66;;;9.96;100.00
20909;BME280;10614;53.198;6.570;2023-12-28T09:54:36;100695.88;;;10.01;100.00
20909;BME280;10614;53.198;6.570;2023-12-28T09:56:43;100684.56;;;9.99;100.00
20909;BME280;10614;53.198;6.570;2023-12-28T09:58:55;100689.16;;;9.93;100.00
20909;BME280;10614;53.198;6.570;2023-12-28T10:01:02;100698.69;;;9.96;100.00
20909;BME280;10614;53.198;6.570;2023-12-28T10:03:07;100695.88;;;10.01;100.00
20909;BME280;10614;53.198;6.570;2023-12-28T10:05:13;100700.41;;;9.97;100.00
20909;BME280;10614;53.198;6.570;2023-12-28T10:07:15;100672.94;;;10.04;100.00
20909;BME280;10614;53.198;6.570;2023-12-28T10:09:17;100692.50;;;9.97;100.00
20909;BME280;10614;53.198;6.570;2023-12-28T10:11:27;100688.84;;;10.01;100.00
20909;BME280;10614;53.198;6.570;2023-12-28T10:13:35;100693.50;;;9.94;100.00
20909;BME280;10614;53.198;6.570;2023-12-28T10:15:37;100697.59;;;10.02;100.00
20909;BME280;10614;53.198;6.570;2023-12-28T10:17:39;100703.91;;;9.98;100.00
20909;BME280;10614;53.198;6.570;2023-12-28T10:19:40;100706.41;;;10.01;100.00
20909;BME280;10614;53.198;6.570;2023-12-28T10:21:44;100699.22;;;10.04;100.00
20909;BME280;10614;53.198;6.570;2023-12-28T10:23:45;100703.72;;;10.02;100.00
20909;BME280;10614;53.198;6.570;2023-12-28T10:25:50;100706.88;;;10.10;100.00
20909;BME280;10614;53.198;6.570;2023-12-28T10:27:54;100705.19;;;10.09;100.00
20909;BME280;10614;53.198;6.570;2023-12-28T10:29:55;100690.00;;;9.94;100.00
20909;BME280;10614;53.198;6.570;2023-12-28T10:31:57;100758.81;;;10.05;100.00
20909;BME280;10614;53.198;6.570;2023-12-28T10:33:59;100684.13;;;9.87;100.00
20909;BME280;10614;53.198;6.570;2023-12-28T10:36:05;100714.78;;;10.10;100.00
20909;BME280;10614;53.198;6.570;2023-12-28T10:38:10;100714.72;;;10.12;100.00
20909;BME280;10614;53.198;6.570;2023-12-28T10:40:15;100674.09;;;9.97;100.00
20909;BME280;10614;53.198;6.570;2023-12-28T10:42:28;100708.53;;;10.13;100.00
20909;BME280;10614;53.198;6.570;2023-12-28T10:44:35;100694.72;;;10.08;100.00